createdAt,value
2019-05-30T00:01:56.440Z,15.60
2019-05-30T00:04:25.560Z,15.60
2019-05-30T00:06:54.413Z,15.60
2019-05-30T00:09:23.358Z,15.60
2019-05-30T00:11:52.236Z,15.50
2019-05-30T00:14:21.087Z,15.40
2019-05-30T00:16:49.922Z,15.40
2019-05-30T00:19:18.822Z,15.40
2019-05-30T00:21:47.622Z,15.30
2019-05-30T00:24:16.420Z,15.30
2019-05-30T00:26:45.387Z,15.20
2019-05-30T00:29:14.416Z,15.20
2019-05-30T00:31:43.269Z,15.20
2019-05-30T00:34:14.129Z,15.20
2019-05-30T00:36:43.047Z,15.10
2019-05-30T00:39:11.940Z,15.10
2019-05-30T00:41:40.696Z,15.10
2019-05-30T00:44:09.551Z,15.10
2019-05-30T00:46:38.455Z,15.00
2019-05-30T00:49:07.202Z,15.00
2019-05-30T00:51:36.051Z,15.00
2019-05-30T00:54:05.143Z,15.00
2019-05-30T00:56:34.137Z,14.90
2019-05-30T00:59:03.115Z,14.90
2019-05-30T01:01:32.071Z,14.90
2019-05-30T01:04:01.034Z,14.90
2019-05-30T01:06:29.944Z,14.90
2019-05-30T01:08:59.128Z,14.90
2019-05-30T01:11:28.042Z,14.90
2019-05-30T01:13:57.045Z,14.90
2019-05-30T01:16:26.007Z,14.90
2019-05-30T01:18:54.945Z,14.90
2019-05-30T01:21:23.955Z,14.90
2019-05-30T01:23:52.841Z,14.90
2019-05-30T01:26:21.788Z,14.90
2019-05-30T01:28:51.792Z,14.80
2019-05-30T01:31:20.593Z,14.90
2019-05-30T01:33:49.496Z,14.90
2019-05-30T01:36:18.387Z,14.90
2019-05-30T01:38:47.330Z,14.90
2019-05-30T01:41:17.697Z,14.90
2019-05-30T01:43:46.700Z,14.90
2019-05-30T01:46:15.605Z,14.90
2019-05-30T01:48:44.371Z,15.00
2019-05-30T01:51:13.360Z,15.00
2019-05-30T01:53:42.376Z,15.00
2019-05-30T01:56:11.334Z,15.00
2019-05-30T01:58:40.324Z,15.00
2019-05-30T02:01:23.728Z,15.00
2019-05-30T02:03:43.185Z,15.10
2019-05-30T02:06:12.320Z,15.10
2019-05-30T02:08:41.315Z,15.00
2019-05-30T02:11:11.846Z,15.10
2019-05-30T02:13:40.620Z,15.10
2019-05-30T02:16:10.050Z,15.10
2019-05-30T02:18:39.448Z,15.10
2019-05-30T02:21:08.260Z,15.10
2019-05-30T02:23:37.157Z,15.10
2019-05-30T02:26:06.366Z,15.10
2019-05-30T02:28:35.849Z,15.10
2019-05-30T02:31:05.359Z,15.10
2019-05-30T02:33:35.700Z,15.10
2019-05-30T02:36:06.325Z,15.20
2019-05-30T02:38:37.296Z,15.20
2019-05-30T02:41:07.736Z,15.20
2019-05-30T02:43:36.725Z,15.10
2019-05-30T02:46:06.333Z,15.20
2019-05-30T02:48:57.354Z,15.20
2019-05-30T02:51:10.787Z,15.10
2019-05-30T02:53:39.700Z,15.20
2019-05-30T02:56:10.242Z,15.20
2019-05-30T02:58:39.297Z,15.20
2019-05-30T03:01:12.105Z,15.20
2019-05-30T03:03:45.152Z,15.20
2019-05-30T03:06:14.385Z,15.30
2019-05-30T03:08:43.520Z,15.30
2019-05-30T03:11:15.216Z,15.30
2019-05-30T03:13:43.787Z,15.30
2019-05-30T03:16:13.617Z,15.30
2019-05-30T03:18:42.747Z,15.30
2019-05-30T03:21:14.822Z,15.20
2019-05-30T03:23:42.609Z,15.20
2019-05-30T03:26:13.702Z,15.20
2019-05-30T03:28:42.475Z,15.20
2019-05-30T03:31:25.629Z,15.20
2019-05-30T03:33:43.243Z,15.20
2019-05-30T03:36:24.279Z,15.20
2019-05-30T03:38:43.564Z,15.20
2019-05-30T03:41:12.637Z,15.20
2019-05-30T03:43:41.722Z,15.20
2019-05-30T03:46:15.522Z,15.20
2019-05-30T03:48:49.074Z,15.20
2019-05-30T03:51:20.559Z,15.20
2019-05-30T03:53:50.595Z,15.20
2019-05-30T03:56:23.475Z,15.20
2019-05-30T03:59:20.003Z,15.20
2019-05-30T04:02:01.305Z,15.20
2019-05-30T04:04:33.658Z,15.20
2019-05-30T04:07:07.575Z,15.20
2019-05-30T04:09:39.143Z,15.20
2019-05-30T04:12:17.433Z,15.20
2019-05-30T04:14:49.911Z,15.30
2019-05-30T04:17:19.986Z,15.20
2019-05-30T04:19:49.341Z,15.20
2019-05-30T04:22:19.649Z,15.20
2019-05-30T04:24:48.793Z,15.20
2019-05-30T04:27:18.631Z,15.30
2019-05-30T04:29:47.577Z,15.20
2019-05-30T04:32:16.647Z,15.30
2019-05-30T04:34:45.605Z,15.30
2019-05-30T04:37:14.944Z,15.30
2019-05-30T04:39:44.240Z,15.30
2019-05-30T04:42:13.687Z,15.40
2019-05-30T04:44:42.999Z,15.40
2019-05-30T04:47:12.215Z,15.40
2019-05-30T04:49:41.591Z,15.40
2019-05-30T04:52:14.232Z,15.40
2019-05-30T04:54:40.853Z,15.40
2019-05-30T04:57:10.736Z,15.40
2019-05-30T04:59:39.977Z,15.50
2019-05-30T05:02:09.218Z,15.50
2019-05-30T05:04:38.555Z,15.50
2019-05-30T05:07:07.373Z,15.50
2019-05-30T05:09:36.124Z,15.50
2019-05-30T05:12:05.039Z,15.60
2019-05-30T05:14:33.821Z,15.60
2019-05-30T05:17:02.594Z,15.60
2019-05-30T05:19:31.349Z,15.60
2019-05-30T05:22:00.188Z,15.60
2019-05-30T05:24:28.943Z,15.70
2019-05-30T05:26:58.695Z,15.70
2019-05-30T05:29:27.459Z,15.70
2019-05-30T05:31:56.219Z,15.60
2019-05-30T05:34:25.157Z,15.70
2019-05-30T05:36:53.928Z,15.70
2019-05-30T05:39:22.795Z,15.70
2019-05-30T05:41:51.563Z,15.80
2019-05-30T05:44:20.480Z,15.80
2019-05-30T05:46:49.317Z,15.80
2019-05-30T05:49:18.412Z,15.80
2019-05-30T05:51:47.307Z,15.80
2019-05-30T05:54:16.819Z,15.80
2019-05-30T05:56:45.811Z,15.90
2019-05-30T05:59:14.643Z,15.90
2019-05-30T06:01:43.410Z,15.90
2019-05-30T06:04:13.600Z,15.90
2019-05-30T06:06:42.728Z,15.90
2019-05-30T06:09:11.583Z,15.90
2019-05-30T06:11:40.337Z,15.90
2019-05-30T06:14:09.204Z,15.80
2019-05-30T06:16:37.978Z,15.80
2019-05-30T06:19:06.972Z,15.90
2019-05-30T06:21:35.733Z,15.90
2019-05-30T06:24:04.669Z,15.90
2019-05-30T06:26:33.504Z,15.90
2019-05-30T06:29:02.383Z,15.90
2019-05-30T06:31:31.137Z,15.90
2019-05-30T06:34:00.090Z,16.10
2019-05-30T06:36:29.326Z,16.10
2019-05-30T06:38:58.157Z,16.20
2019-05-30T06:41:27.715Z,16.20
2019-05-30T06:43:56.571Z,16.20
2019-05-30T06:46:26.188Z,16.20
2019-05-30T06:48:55.190Z,16.20
2019-05-30T06:51:24.835Z,16.20
2019-05-30T06:53:53.922Z,16.20
2019-05-30T06:56:23.276Z,16.20
2019-05-30T06:58:52.337Z,16.10
2019-05-30T07:01:22.070Z,16.10
2019-05-30T07:03:51.364Z,16.10
2019-05-30T07:06:20.672Z,16.10
2019-05-30T07:08:49.738Z,16.10
2019-05-30T07:11:18.494Z,16.20
2019-05-30T07:13:47.278Z,16.20
2019-05-30T07:16:16.027Z,16.30
2019-05-30T07:18:44.822Z,16.40
2019-05-30T07:21:13.622Z,16.40
2019-05-30T07:23:42.392Z,16.40
2019-05-30T07:26:11.319Z,16.40
2019-05-30T07:28:40.398Z,16.40
2019-05-30T07:31:09.204Z,16.30
2019-05-30T07:33:37.994Z,16.40
2019-05-30T07:36:06.830Z,16.30
2019-05-30T07:38:35.587Z,16.30
2019-05-30T07:41:04.538Z,16.30
2019-05-30T07:43:33.598Z,16.40
2019-05-30T07:46:02.697Z,16.40
2019-05-30T07:48:32.392Z,16.30
2019-05-30T07:51:01.886Z,16.30
2019-05-30T07:53:30.927Z,16.20
2019-05-30T07:55:59.733Z,16.20
2019-05-30T07:58:29.034Z,16.30
2019-05-30T08:00:58.175Z,16.20
2019-05-30T08:03:26.950Z,16.30
2019-05-30T08:05:55.721Z,16.40
2019-05-30T08:08:24.524Z,16.40
2019-05-30T08:11:08.355Z,16.50
2019-05-30T08:13:23.853Z,16.50
2019-05-30T08:15:52.859Z,16.50
2019-05-30T08:18:21.677Z,16.50
2019-05-30T08:20:50.436Z,16.40
2019-05-30T08:23:19.198Z,16.40
2019-05-30T08:25:47.967Z,16.40
2019-05-30T08:28:16.982Z,16.50
2019-05-30T08:30:45.902Z,16.50
2019-05-30T08:33:14.708Z,16.50
2019-05-30T08:35:49.555Z,16.50
2019-05-30T08:38:13.997Z,16.50
2019-05-30T08:40:55.314Z,16.60
2019-05-30T08:43:24.076Z,16.60
2019-05-30T08:45:52.936Z,16.70
2019-05-30T08:48:21.723Z,16.80
2019-05-30T08:50:50.472Z,17.00
2019-05-30T08:53:19.267Z,17.00
2019-05-30T08:55:48.109Z,17.10
2019-05-30T08:58:17.195Z,17.20
2019-05-30T09:00:45.964Z,17.30
2019-05-30T09:03:14.740Z,17.30
2019-05-30T09:05:59.237Z,17.30
2019-05-30T09:08:14.052Z,17.30
2019-05-30T09:10:42.914Z,17.40
2019-05-30T09:13:11.662Z,17.40
2019-05-30T09:15:41.059Z,17.40
2019-05-30T09:18:10.241Z,17.50
2019-05-30T09:20:39.801Z,17.50
2019-05-30T09:23:09.421Z,17.50
2019-05-30T09:25:38.881Z,17.60
2019-05-30T09:28:08.820Z,17.60
2019-05-30T09:30:38.249Z,17.60
2019-05-30T09:33:08.478Z,17.70
2019-05-30T09:35:38.524Z,17.70
2019-05-30T09:38:08.077Z,17.70
2019-05-30T09:40:36.868Z,17.80
2019-05-30T09:43:05.757Z,17.90
2019-05-30T09:45:34.959Z,17.90
2019-05-30T09:48:03.731Z,17.90
2019-05-30T09:50:32.709Z,18.00
2019-05-30T09:53:01.460Z,18.00
2019-05-30T09:55:30.365Z,18.00
2019-05-30T09:57:59.465Z,18.00
2019-05-30T10:00:28.900Z,17.90
2019-05-30T10:02:57.791Z,18.00
2019-05-30T10:05:26.626Z,18.00
2019-05-30T10:07:55.450Z,18.00
2019-05-30T10:41:07.290Z,17.80
2019-05-30T10:43:36.209Z,17.80
2019-05-30T10:46:05.076Z,17.80
2019-05-30T10:48:34.073Z,17.80
2019-05-30T10:51:03.400Z,17.80
2019-05-30T10:53:32.385Z,17.90
2019-05-30T10:56:01.439Z,18.10
2019-05-30T10:58:30.404Z,18.30
2019-05-30T11:00:59.629Z,18.40
2019-05-30T11:03:28.696Z,18.40
2019-05-30T11:06:38.118Z,18.40
2019-05-30T11:09:07.917Z,18.30
2019-05-30T11:11:36.784Z,18.30
2019-05-30T11:14:06.140Z,18.40
2019-05-30T11:16:35.079Z,18.40
2019-05-30T11:19:07.367Z,18.50
2019-05-30T11:21:34.741Z,18.50
2019-05-30T11:24:04.302Z,18.50
2019-05-30T11:26:33.154Z,18.50
2019-05-30T11:29:02.073Z,18.50
2019-05-30T11:31:31.153Z,18.70
2019-05-30T11:34:00.301Z,19.00
2019-05-30T11:36:29.209Z,19.10
2019-05-30T11:38:57.981Z,19.20
2019-05-30T11:41:28.948Z,19.30
2019-05-30T11:43:57.839Z,19.60
2019-05-30T11:46:26.705Z,19.90
2019-05-30T11:48:55.694Z,19.80
2019-05-30T11:51:24.552Z,19.90
2019-05-30T11:53:53.817Z,19.90
2019-05-30T11:56:22.866Z,20.00
2019-05-30T11:58:51.998Z,20.10
2019-05-30T12:01:21.062Z,20.00
2019-05-30T12:03:50.557Z,20.00
2019-05-30T12:06:21.829Z,20.00
2019-05-30T12:08:50.681Z,19.80
2019-05-30T12:11:19.685Z,20.10
2019-05-30T12:13:48.594Z,20.20
2019-05-30T12:16:17.713Z,20.30
2019-05-30T12:18:46.851Z,20.50
2019-05-30T12:21:15.943Z,20.60
2019-05-30T12:23:45.011Z,20.80
2019-05-30T12:26:14.494Z,20.90
2019-05-30T12:28:43.392Z,21.00
2019-05-30T12:31:12.353Z,21.10
2019-05-30T12:33:41.394Z,20.80
2019-05-30T12:36:10.257Z,20.60
2019-05-30T12:38:39.748Z,20.70
2019-05-30T12:41:08.580Z,21.00
2019-05-30T12:43:37.456Z,21.20
2019-05-30T12:46:06.470Z,21.40
2019-05-30T12:48:35.489Z,21.30
2019-05-30T12:51:05.486Z,21.20
2019-05-30T12:53:34.943Z,21.30
2019-05-30T12:56:03.913Z,21.30
2019-05-30T12:58:32.962Z,21.30
2019-05-30T13:01:02.967Z,21.40
2019-05-30T13:03:40.139Z,21.40
2019-05-30T13:06:04.797Z,21.60
2019-05-30T13:08:35.896Z,21.70
2019-05-30T13:11:05.698Z,21.60
2019-05-30T13:13:34.890Z,21.70
2019-05-30T13:16:07.163Z,21.60
2019-05-30T13:18:39.649Z,21.40
2019-05-30T13:21:10.433Z,21.50
2019-05-30T13:23:39.886Z,21.50
2019-05-30T13:26:13.271Z,21.60
2019-05-30T13:28:42.543Z,21.90
2019-05-30T13:31:15.037Z,21.90
2019-05-30T13:33:43.964Z,21.90
2019-05-30T13:36:13.153Z,21.70
2019-05-30T13:38:44.530Z,21.80
2019-05-30T13:41:14.203Z,21.90
2019-05-30T13:43:43.056Z,21.90
2019-05-30T13:46:11.964Z,22.00
2019-05-30T13:48:41.171Z,22.20
2019-05-30T13:51:10.137Z,22.30
2019-05-30T13:53:39.123Z,22.20
2019-05-30T13:56:08.077Z,22.10
2019-05-30T13:58:37.123Z,22.00
2019-05-30T14:01:10.483Z,22.00
2019-05-30T14:03:36.774Z,22.00
2019-05-30T14:06:06.222Z,22.20
2019-05-30T14:08:41.530Z,22.20
2019-05-30T14:11:10.837Z,22.20
2019-05-30T14:13:41.818Z,22.10
2019-05-30T14:16:11.107Z,22.00
2019-05-30T14:18:40.233Z,21.80
2019-05-30T14:21:09.390Z,21.70
2019-05-30T14:23:38.724Z,21.80
2019-05-30T14:26:07.682Z,21.90
2019-05-30T14:28:36.673Z,21.70
2019-05-30T14:31:06.781Z,21.60
2019-05-30T14:33:39.269Z,21.40
2019-05-30T14:36:11.431Z,21.30
2019-05-30T14:38:38.821Z,21.50
2019-05-30T14:41:08.915Z,21.30
2019-05-30T14:43:37.890Z,21.30
2019-05-30T14:46:08.237Z,21.30
2019-05-30T14:48:37.438Z,21.40
2019-05-30T14:51:10.978Z,21.50
2019-05-30T14:53:40.144Z,21.50
2019-05-30T14:56:11.239Z,21.70
2019-05-30T14:58:40.007Z,22.10
2019-05-30T15:01:09.362Z,22.30
2019-05-30T15:03:38.272Z,22.40
2019-05-30T15:06:09.175Z,22.40
2019-05-30T15:08:38.033Z,22.40
2019-05-30T15:11:07.461Z,22.30
2019-05-30T15:13:36.308Z,22.30
2019-05-30T15:16:05.117Z,22.20
2019-05-30T15:18:36.253Z,22.20
2019-05-30T15:21:06.191Z,22.20
2019-05-30T15:23:35.190Z,22.30
2019-05-30T15:26:04.096Z,22.50
2019-05-30T15:28:33.200Z,22.50
2019-05-30T15:31:02.056Z,22.40
2019-05-30T15:33:30.936Z,22.50
2019-05-30T15:35:59.877Z,22.60
2019-05-30T15:38:28.848Z,22.60
2019-05-30T15:40:57.757Z,22.60
2019-05-30T15:43:26.845Z,22.70
2019-05-30T15:45:56.001Z,22.70
2019-05-30T15:48:25.043Z,22.80
2019-05-30T15:50:54.164Z,22.90
2019-05-30T15:53:24.699Z,22.90
2019-05-30T15:55:53.492Z,22.90
2019-05-30T15:58:22.293Z,22.80
2019-05-30T16:00:51.206Z,22.80
2019-05-30T16:03:20.435Z,22.80
2019-05-30T16:05:49.228Z,22.80
2019-05-30T16:08:18.816Z,22.70
2019-05-30T16:10:47.639Z,22.70
2019-05-30T16:13:17.454Z,22.50
2019-05-30T16:15:46.607Z,22.20
2019-05-30T16:18:15.709Z,22.20
2019-05-30T16:20:44.801Z,22.30
2019-05-30T16:23:14.563Z,22.30
2019-05-30T16:25:43.450Z,22.40
2019-05-30T16:28:13.652Z,22.30
2019-05-30T16:30:42.536Z,22.00
2019-05-30T16:33:11.289Z,21.70
2019-05-30T16:35:40.047Z,21.50
2019-05-30T16:38:08.809Z,21.50
2019-05-30T16:40:37.649Z,21.40
2019-05-30T16:43:06.433Z,21.30
2019-05-30T16:45:35.226Z,21.20
2019-05-30T16:48:03.963Z,21.20
2019-05-30T16:50:33.182Z,21.20
2019-05-30T16:53:01.997Z,21.20
2019-05-30T16:55:31.141Z,21.10
2019-05-30T16:57:59.912Z,21.20
2019-05-30T17:00:28.834Z,21.20
2019-05-30T17:02:57.673Z,21.20
2019-05-30T17:05:26.549Z,21.10
2019-05-30T17:07:58.553Z,21.00
2019-05-30T17:10:32.694Z,20.90
2019-05-30T17:12:58.145Z,20.80
2019-05-30T17:15:27.226Z,20.80
2019-05-30T17:17:55.985Z,20.70
2019-05-30T17:20:25.033Z,20.60
2019-05-30T17:22:53.919Z,20.60
2019-05-30T17:25:23.164Z,20.60
2019-05-30T17:27:52.930Z,20.60
2019-05-30T17:30:23.605Z,20.50
2019-05-30T17:32:52.688Z,20.50
2019-05-30T17:35:22.075Z,20.50
2019-05-30T17:37:52.674Z,20.50
2019-05-30T17:40:35.611Z,20.50
2019-05-30T17:42:54.751Z,20.50
2019-05-30T17:45:23.761Z,20.50
2019-05-30T17:48:02.698Z,20.50
2019-05-30T17:50:23.965Z,20.50
2019-05-30T17:52:52.973Z,20.40
2019-05-30T17:55:22.151Z,20.40
2019-05-30T17:57:51.045Z,20.30
2019-05-30T18:00:22.301Z,20.20
2019-05-30T18:02:51.223Z,20.20
2019-05-30T18:05:20.533Z,20.20
2019-05-30T18:07:49.510Z,20.10
2019-05-30T18:10:20.716Z,20.00
2019-05-30T18:12:50.160Z,20.00
2019-05-30T18:15:20.984Z,20.00
2019-05-30T18:17:50.888Z,20.00
2019-05-30T18:20:21.067Z,20.00
2019-05-30T18:22:49.954Z,20.00
2019-05-30T18:25:21.646Z,20.00
2019-05-30T18:27:50.469Z,19.90
2019-05-30T18:30:27.996Z,19.90
2019-05-30T18:33:00.148Z,19.90
2019-05-30T18:35:30.475Z,19.80
2019-05-30T18:38:01.876Z,19.80
2019-05-30T18:40:33.272Z,19.80
2019-05-30T18:43:02.431Z,19.80
2019-05-30T18:45:39.463Z,19.80
2019-05-30T18:48:09.180Z,19.70
2019-05-30T18:50:38.432Z,19.80
2019-05-30T18:53:07.735Z,19.80
2019-05-30T18:55:37.031Z,19.80
2019-05-30T18:58:07.577Z,19.80
2019-05-30T19:00:37.603Z,19.70
2019-05-30T19:03:06.791Z,19.70
2019-05-30T19:05:36.966Z,19.70
2019-05-30T19:08:06.519Z,19.60
2019-05-30T19:10:36.632Z,19.60
2019-05-30T19:13:05.948Z,19.50
2019-05-30T19:15:35.107Z,19.50
2019-05-30T19:18:04.186Z,19.50
2019-05-30T19:20:33.899Z,19.50
2019-05-30T19:23:03.641Z,19.50
2019-05-30T19:25:33.859Z,19.50
2019-05-30T19:28:03.623Z,19.50
2019-05-30T19:30:32.869Z,19.50
2019-05-30T19:33:02.164Z,19.60
2019-05-30T19:35:31.452Z,19.60
2019-05-30T19:38:07.772Z,19.60
2019-05-30T19:40:37.885Z,19.50
2019-05-30T19:43:08.586Z,19.50
2019-05-30T19:45:40.986Z,19.50
2019-05-30T19:48:09.996Z,19.50
2019-05-30T19:50:40.302Z,19.50
2019-05-30T19:53:09.919Z,19.50
2019-05-30T19:55:39.446Z,19.40
2019-05-30T19:58:08.701Z,19.50
2019-05-30T20:00:57.568Z,19.40
2019-05-30T20:03:09.713Z,19.40
2019-05-30T20:05:40.950Z,19.40
2019-05-30T20:08:10.450Z,19.30
2019-05-30T20:10:39.570Z,19.30
2019-05-30T20:13:08.531Z,19.30
2019-05-30T20:15:37.803Z,19.30
2019-05-30T20:18:06.873Z,19.30
2019-05-30T20:20:50.686Z,19.30
2019-05-30T20:23:06.749Z,19.30
2019-05-30T20:25:38.437Z,19.30
2019-05-30T20:28:07.374Z,19.30
2019-05-30T20:30:37.122Z,19.30
2019-05-30T20:33:06.525Z,19.30
2019-05-30T20:35:36.770Z,19.30
2019-05-30T20:38:06.577Z,19.30
2019-05-30T20:40:36.910Z,19.30
2019-05-30T20:43:06.111Z,19.30
2019-05-30T20:45:38.423Z,19.30
2019-05-30T20:48:05.667Z,19.30
2019-05-30T20:50:35.025Z,19.20
2019-05-30T20:53:04.083Z,19.20
2019-05-30T20:55:36.400Z,19.20
2019-05-30T20:58:05.451Z,19.20
2019-05-30T21:00:38.268Z,19.20
2019-05-30T21:03:07.757Z,19.20
2019-05-30T21:05:37.848Z,19.20
2019-05-30T21:08:06.882Z,19.10
2019-05-30T21:10:39.037Z,19.10
2019-05-30T21:13:08.198Z,19.20
2019-05-30T21:15:39.521Z,19.10
2019-05-30T21:18:08.817Z,19.10
2019-05-30T21:20:37.873Z,19.10
2019-05-30T21:23:06.700Z,19.10
2019-05-30T21:25:37.068Z,19.10
2019-05-30T21:28:08.455Z,19.10
2019-05-30T21:30:37.317Z,19.10
2019-05-30T21:33:06.476Z,19.10
2019-05-30T21:35:35.408Z,19.10
2019-05-30T21:38:05.408Z,19.00
2019-05-30T21:40:34.310Z,19.10
2019-05-30T21:43:06.718Z,19.10
2019-05-30T21:45:33.808Z,19.10
2019-05-30T21:48:02.656Z,19.10
2019-05-30T21:50:31.585Z,19.10
2019-05-30T21:53:00.740Z,19.10
2019-05-30T21:55:29.630Z,19.00
2019-05-30T21:57:58.719Z,19.10
2019-05-30T22:01:09.540Z,19.10
2019-05-30T22:03:40.854Z,19.10
2019-05-30T22:06:11.371Z,19.10
2019-05-30T22:08:41.065Z,19.00
2019-05-30T22:11:10.152Z,19.00
2019-05-30T22:13:41.413Z,19.00
2019-05-30T22:16:09.764Z,18.90
2019-05-30T22:18:38.696Z,18.90
2019-05-30T22:21:07.784Z,18.80
2019-05-30T22:23:40.424Z,18.90
2019-05-30T22:26:09.469Z,18.80
2019-05-30T22:28:38.439Z,18.80
2019-05-30T22:31:07.394Z,18.80
2019-05-30T22:33:36.328Z,18.80
2019-05-30T22:36:06.238Z,18.70
2019-05-30T22:38:35.196Z,18.70
2019-05-30T22:41:04.399Z,18.70
2019-05-30T22:43:33.407Z,18.70
2019-05-30T22:46:02.459Z,18.70
2019-05-30T22:48:31.294Z,18.70
2019-05-30T22:51:02.240Z,18.70
2019-05-30T22:53:34.285Z,18.70
2019-05-30T22:56:03.262Z,18.60
2019-05-30T22:58:36.215Z,18.60
2019-05-30T23:01:05.096Z,18.60
2019-05-30T23:03:33.916Z,18.60
2019-05-30T23:06:05.220Z,18.60
2019-05-30T23:08:37.336Z,18.60
2019-05-30T23:11:06.117Z,18.60
2019-05-30T23:13:40.577Z,18.60
2019-05-30T23:16:05.627Z,18.60
2019-05-30T23:18:34.637Z,18.50
2019-05-30T23:21:03.467Z,18.50
2019-05-30T23:23:32.264Z,18.50
2019-05-30T23:26:03.608Z,18.50
2019-05-30T23:28:32.490Z,18.50
2019-05-30T23:31:02.710Z,18.40
2019-05-30T23:33:31.595Z,18.40
2019-05-30T23:36:00.488Z,18.40
2019-05-30T23:38:29.367Z,18.40
2019-05-30T23:40:59.198Z,18.40
2019-05-30T23:43:29.585Z,18.30
2019-05-30T23:46:00.108Z,18.40
2019-05-30T23:48:33.527Z,18.30
2019-05-30T23:51:02.461Z,18.30
2019-05-30T23:53:31.410Z,18.30
2019-05-30T23:56:00.641Z,18.40
2019-05-30T23:58:29.592Z,18.30
